Terminal Aerodrome Forecast
Issued by NWS

Current Version | Previous Version | Graphics & Text | Print | Product List | Glossary On
Versions: 1 2 3 4 5 6 7 8 9 10 11 12 13 14 15 16 17 18 19 20 21 22 23 24 25
838
FTUS41 KRLX 191138
TAFCKB
TAF
KCKB 191138Z 1912/2012 23004KT P6SM OVC009
     FM191500 20003KT P6SM BKN015
     FM192000 10003KT P6SM FEW150
     FM200900 12005KT 4SM SHRA BKN040=

USA.gov is the U.S. government's official web portal to all federal, state and local government web resources and services.